Time;durP1;ratioP1;P1;durP2;ratioP2;P2;SDS_P1;SDS_P2;PMS_P1;PMS_P2;Temp;Humidity;BMP_temperature;BMP_pressure;BME280_temperature;BME280_humidity;BME280_pressure;Samples;Min_cycle;Max_cycle;Signal;HPM_P1;HPM_P2
2022/12/09 00:01:25;;;;;;;24.52;16.08;;;;;;;;;;5048279;28;20128;-72
2022/12/09 00:03:51;;;;;;;23.27;15.65;;;;;;;;;;5044764;28;20041;-74
2022/12/09 00:06:19;;;;;;;22.58;15.98;;;;;;;;;;5040035;28;20506;-74
2022/12/09 00:08:45;;;;;;;22.50;15.98;;;;;;;;;;5042688;28;20047;-73
2022/12/09 00:11:12;;;;;;;24.42;16.65;;;;;;;;;;5039771;28;20044;-74
2022/12/09 00:13:38;;;;;;;20.40;16.27;;;;;;;;;;5039569;28;20712;-71
2022/12/09 00:16:08;;;;;;;22.50;16.00;;;;;;;;;;5026296;28;20052;-73
2022/12/09 00:18:35;;;;;;;21.77;16.45;;;;;;;;;;5026315;28;20079;-72
2022/12/09 00:21:31;;;;;;;21.85;16.08;;;;;;;;;;5042424;28;20049;-71
2022/12/09 00:23:58;;;;;;;22.15;16.98;;;;;;;;;;5028538;28;20143;-71
2022/12/09 00:26:24;;;;;;;22.98;16.70;;;;;;;;;;5041855;28;20049;-74
2022/12/09 00:28:51;;;;;;;20.95;16.30;;;;;;;;;;5038738;28;20126;-71
2022/12/09 00:31:18;;;;;;;21.38;16.27;;;;;;;;;;5045585;28;20061;-71
2022/12/09 00:33:45;;;;;;;21.63;15.98;;;;;;;;;;5039876;28;20053;-74
2022/12/09 00:36:13;;;;;;;21.75;15.77;;;;;;;;;;5026377;28;20461;-70
2022/12/09 00:38:39;;;;;;;20.75;16.50;;;;;;;;;;5041435;28;20044;-71
2022/12/09 00:41:05;;;;;;;27.65;18.08;;;;;;;;;;5042426;28;20060;-72
2022/12/09 00:43:31;;;;;;;22.60;16.92;;;;;;;;;;5042304;28;20048;-74
2022/12/09 00:45:57;;;;;;;23.67;16.80;;;;;;;;;;5041983;28;20055;-74
2022/12/09 00:48:23;;;;;;;24.70;17.77;;;;;;;;;;5037158;28;20037;-71
2022/12/09 00:50:49;;;;;;;23.35;17.08;;;;;;;;;;5044292;28;20048;-71
2022/12/09 00:53:16;;;;;;;23.67;17.00;;;;;;;;;;5046323;28;20040;-73
2022/12/09 00:55:43;;;;;;;25.15;17.05;;;;;;;;;;5043344;28;20032;-71
2022/12/09 00:58:09;;;;;;;22.70;16.60;;;;;;;;;;5038803;28;20052;-71
2022/12/09 01:00:35;;;;;;;22.67;16.77;;;;;;;;;;5046702;28;20048;-71
2022/12/09 01:03:01;;;;;;;23.77;16.17;;;;;;;;;;5041174;28;20053;-72
2022/12/09 01:05:27;;;;;;;24.65;16.20;;;;;;;;;;5041847;28;20053;-73
2022/12/09 01:07:53;;;;;;;22.00;16.30;;;;;;;;;;5039370;28;20679;-72
2022/12/09 01:10:19;;;;;;;21.90;16.10;;;;;;;;;;5023919;28;20041;-72
2022/12/09 01:12:45;;;;;;;22.08;16.27;;;;;;;;;;5043197;28;20063;-72
2022/12/09 01:15:11;;;;;;;22.10;15.77;;;;;;;;;;5040305;28;21068;-72
2022/12/09 01:17:38;;;;;;;22.58;16.88;;;;;;;;;;5041805;28;20045;-74
2022/12/09 01:20:04;;;;;;;22.60;16.45;;;;;;;;;;5043328;28;20037;-73
2022/12/09 01:22:30;;;;;;;26.02;17.02;;;;;;;;;;5041131;28;20045;-71
2022/12/09 01:24:56;;;;;;;24.30;16.38;;;;;;;;;;5042389;28;20396;-72
2022/12/09 01:27:23;;;;;;;22.80;16.23;;;;;;;;;;5041160;28;20266;-74
2022/12/09 01:29:48;;;;;;;23.77;16.50;;;;;;;;;;5041550;28;20053;-71
2022/12/09 01:32:14;;;;;;;25.80;17.58;;;;;;;;;;5026706;28;20052;-71
2022/12/09 01:34:41;;;;;;;24.48;16.77;;;;;;;;;;5047959;28;20443;-72
2022/12/09 01:37:07;;;;;;;29.08;16.42;;;;;;;;;;5046066;28;20045;-71
2022/12/09 01:39:33;;;;;;;19.98;15.48;;;;;;;;;;5046906;28;20045;-71
2022/12/09 01:42:03;;;;;;;20.17;15.60;;;;;;;;;;5043607;28;20132;-70
2022/12/09 01:44:33;;;;;;;22.83;16.20;;;;;;;;;;5040670;28;20045;-71
2022/12/09 01:47:00;;;;;;;24.75;15.55;;;;;;;;;;5045882;28;20514;-71
2022/12/09 01:49:37;;;;;;;20.55;15.60;;;;;;;;;;5047668;28;20041;-70
2022/12/09 01:52:03;;;;;;;24.15;16.92;;;;;;;;;;5045062;28;20049;-70
2022/12/09 01:54:30;;;;;;;20.52;15.75;;;;;;;;;;5047424;28;20047;-71
2022/12/09 01:56:56;;;;;;;21.50;16.35;;;;;;;;;;5048025;28;20095;-70
2022/12/09 01:59:22;;;;;;;22.40;14.80;;;;;;;;;;5025617;28;20492;-70
2022/12/09 02:01:49;;;;;;;21.40;15.25;;;;;;;;;;5043008;28;20049;-73
2022/12/09 02:04:15;;;;;;;21.50;15.68;;;;;;;;;;5030520;28;20049;-71
2022/12/09 02:06:41;;;;;;;21.75;15.52;;;;;;;;;;5036255;28;20043;-72
2022/12/09 02:09:07;;;;;;;20.63;14.65;;;;;;;;;;5040624;28;20484;-71
2022/12/09 02:11:37;;;;;;;22.15;15.90;;;;;;;;;;5040318;28;20042;-71
2022/12/09 02:14:05;;;;;;;25.13;15.93;;;;;;;;;;5026014;28;20136;-71
2022/12/09 02:16:36;;;;;;;23.08;16.65;;;;;;;;;;5024718;28;20083;-72
2022/12/09 02:19:29;;;;;;;22.00;16.98;;;;;;;;;;5031161;28;20068;-70
2022/12/09 02:21:57;;;;;;;25.10;18.03;;;;;;;;;;5040779;28;20052;-70
2022/12/09 02:24:34;;;;;;;23.25;15.90;;;;;;;;;;5043207;28;20299;-73
2022/12/09 02:27:09;;;;;;;21.25;14.70;;;;;;;;;;5028247;28;20108;-71
2022/12/09 02:29:50;;;;;;;23.85;15.68;;;;;;;;;;5045740;28;20053;-71
2022/12/09 02:32:35;;;;;;;20.77;15.55;;;;;;;;;;5047484;28;20102;-75
2022/12/09 02:35:07;;;;;;;25.45;14.82;;;;;;;;;;5031743;28;20610;-71
2022/12/09 02:37:33;;;;;;;;;;;;;;;;;;5053887;28;20397;-73
2022/12/09 02:40:06;;;;;;;19.88;14.65;;;;;;;;;;5042078;28;19917;-70
2022/12/09 02:42:32;;;;;;;;;;;;;;;;;;5029402;28;20044;-70
2022/12/09 02:45:00;;;;;;;21.23;15.00;;;;;;;;;;5040874;28;19920;-70
2022/12/09 02:47:28;;;;;;;22.70;16.80;;;;;;;;;;5040457;28;20053;-70
2022/12/09 02:49:57;;;;;;;22.98;16.75;;;;;;;;;;5043762;28;20053;-73
2022/12/09 02:52:23;;;;;;;24.60;15.88;;;;;;;;;;5045426;28;20049;-71
2022/12/09 02:54:50;;;;;;;20.83;14.63;;;;;;;;;;5048675;28;20064;-70
2022/12/09 02:57:17;;;;;;;21.98;15.00;;;;;;;;;;5040342;28;20094;-75
2022/12/09 02:59:43;;;;;;;22.85;15.32;;;;;;;;;;5048427;28;20060;-70
2022/12/09 03:02:22;;;;;;;21.23;14.50;;;;;;;;;;5046390;28;20076;-70
2022/12/09 03:04:54;;;;;;;20.67;15.00;;;;;;;;;;5045794;28;20066;-70
2022/12/09 03:07:25;;;;;;;22.00;16.17;;;;;;;;;;5044977;28;20097;-70
2022/12/09 03:09:58;;;;;;;24.45;16.10;;;;;;;;;;5046475;28;20093;-71
2022/12/09 03:12:26;;;;;;;24.23;15.80;;;;;;;;;;5040205;28;20048;-70
2022/12/09 03:14:53;;;;;;;26.27;17.13;;;;;;;;;;5046466;28;20052;-71
2022/12/09 03:17:23;;;;;;;21.95;15.68;;;;;;;;;;5048987;28;20039;-71
2022/12/09 03:19:52;;;;;;;21.50;14.90;;;;;;;;;;5044755;28;20143;-71
2022/12/09 03:22:20;;;;;;;19.83;14.20;;;;;;;;;;5041959;28;20073;-72
2022/12/09 03:24:49;;;;;;;22.83;15.80;;;;;;;;;;5044971;28;20044;-73
2022/12/09 03:27:18;;;;;;;21.70;15.50;;;;;;;;;;5029153;28;20049;-73
2022/12/09 03:29:46;;;;;;;24.30;16.48;;;;;;;;;;5043520;28;20048;-71
2022/12/09 03:32:14;;;;;;;23.52;16.23;;;;;;;;;;5027297;28;20452;-70
2022/12/09 03:34:42;;;;;;;24.58;16.00;;;;;;;;;;5041754;28;20037;-70
2022/12/09 03:37:10;;;;;;;24.10;16.77;;;;;;;;;;5046370;28;20403;-71
2022/12/09 03:39:37;;;;;;;21.55;16.00;;;;;;;;;;5048060;28;20041;-70
2022/12/09 03:42:05;;;;;;;25.33;17.10;;;;;;;;;;5041963;28;20068;-70
2022/12/09 03:44:37;;;;;;;24.13;17.00;;;;;;;;;;5043430;28;20075;-71
2022/12/09 03:47:04;;;;;;;25.47;17.53;;;;;;;;;;5043684;28;20048;-75
2022/12/09 03:49:30;;;;;;;25.58;16.65;;;;;;;;;;5044779;28;20438;-73
2022/12/09 03:52:01;;;;;;;25.00;16.42;;;;;;;;;;5045426;28;20179;-70
2022/12/09 03:54:36;;;;;;;27.08;17.90;;;;;;;;;;5050346;28;20123;-73
2022/12/09 03:57:02;;;;;;;26.35;17.50;;;;;;;;;;5042327;28;20041;-70
2022/12/09 03:59:30;;;;;;;20.70;14.30;;;;;;;;;;5045480;28;20131;-72
2022/12/09 04:01:56;;;;;;;23.52;16.38;;;;;;;;;;5045283;28;20049;-70
2022/12/09 04:04:22;;;;;;;22.48;16.52;;;;;;;;;;5045075;28;20084;-70
2022/12/09 04:06:50;;;;;;;24.35;15.55;;;;;;;;;;5045626;28;20579;-73
2022/12/09 04:09:16;;;;;;;21.90;15.68;;;;;;;;;;5046685;28;21235;-73
2022/12/09 04:11:42;;;;;;;22.77;16.13;;;;;;;;;;5045921;28;20054;-73
2022/12/09 04:14:08;;;;;;;21.40;15.32;;;;;;;;;;5044230;28;20033;-73
2022/12/09 04:16:34;;;;;;;25.63;16.27;;;;;;;;;;5046952;28;20070;-73
2022/12/09 04:19:00;;;;;;;25.85;16.05;;;;;;;;;;5047927;28;20049;-74
2022/12/09 04:21:26;;;;;;;21.90;15.85;;;;;;;;;;5029451;28;20064;-74
2022/12/09 04:23:52;;;;;;;20.75;14.23;;;;;;;;;;5045734;28;20046;-74
2022/12/09 04:26:22;;;;;;;23.50;14.82;;;;;;;;;;5046226;28;20045;-73
2022/12/09 04:28:48;;;;;;;19.63;14.05;;;;;;;;;;5047804;28;20052;-73
2022/12/09 04:31:16;;;;;;;23.13;15.23;;;;;;;;;;5046485;28;20523;-74
2022/12/09 04:33:42;;;;;;;23.67;15.15;;;;;;;;;;5029445;28;20487;-73
2022/12/09 04:36:09;;;;;;;22.50;15.98;;;;;;;;;;5045487;28;20043;-71
2022/12/09 04:38:35;;;;;;;26.20;16.27;;;;;;;;;;5044303;28;20048;-73
2022/12/09 04:41:02;;;;;;;24.95;17.30;;;;;;;;;;5046456;28;20091;-71
2022/12/09 04:43:28;;;;;;;28.10;18.13;;;;;;;;;;5043146;28;20056;-72
2022/12/09 04:45:59;;;;;;;25.05;16.58;;;;;;;;;;5051059;28;20076;-72
2022/12/09 04:48:25;;;;;;;27.00;17.20;;;;;;;;;;5043055;28;20048;-71
2022/12/09 04:50:51;;;;;;;28.33;18.00;;;;;;;;;;5047377;28;20072;-71
2022/12/09 04:53:17;;;;;;;25.05;16.98;;;;;;;;;;5044808;28;20071;-71
2022/12/09 04:55:43;;;;;;;24.45;16.05;;;;;;;;;;5040667;28;20045;-71
2022/12/09 04:58:09;;;;;;;24.95;15.88;;;;;;;;;;5047679;28;20036;-72
2022/12/09 05:00:35;;;;;;;24.23;16.35;;;;;;;;;;5045627;28;20059;-72
2022/12/09 05:03:01;;;;;;;25.08;17.25;;;;;;;;;;5044344;28;20164;-72
2022/12/09 05:05:27;;;;;;;24.17;15.93;;;;;;;;;;5040146;28;20041;-72
2022/12/09 05:07:53;;;;;;;22.73;15.23;;;;;;;;;;5045001;28;20094;-72
2022/12/09 05:10:19;;;;;;;21.48;15.82;;;;;;;;;;5042479;28;20049;-73
2022/12/09 05:12:45;;;;;;;26.10;16.70;;;;;;;;;;5044656;28;20087;-72
2022/12/09 05:15:11;;;;;;;24.65;16.58;;;;;;;;;;5047024;28;20398;-71
2022/12/09 05:17:37;;;;;;;19.60;13.93;;;;;;;;;;5045820;28;20045;-72
2022/12/09 05:20:03;;;;;;;20.05;13.27;;;;;;;;;;5045954;28;20053;-74
2022/12/09 05:22:29;;;;;;;23.17;14.60;;;;;;;;;;5025698;28;20049;-72
2022/12/09 05:24:55;;;;;;;25.02;15.90;;;;;;;;;;5037562;28;20056;-72
2022/12/09 05:27:21;;;;;;;22.35;16.00;;;;;;;;;;5047468;28;20044;-71
2022/12/09 05:29:47;;;;;;;28.38;17.40;;;;;;;;;;5028455;28;20064;-72
2022/12/09 05:32:13;;;;;;;34.53;18.20;;;;;;;;;;5044331;28;20415;-73
2022/12/09 05:34:39;;;;;;;26.08;18.00;;;;;;;;;;5045183;28;20080;-71
2022/12/09 05:37:05;;;;;;;31.80;18.92;;;;;;;;;;5040686;28;20483;-72
2022/12/09 05:39:31;;;;;;;24.08;16.67;;;;;;;;;;5045644;28;20044;-72
2022/12/09 05:41:57;;;;;;;25.75;17.40;;;;;;;;;;5043170;28;20119;-71
2022/12/09 05:44:23;;;;;;;23.23;15.30;;;;;;;;;;5028827;28;20044;-71
2022/12/09 05:46:49;;;;;;;25.70;16.58;;;;;;;;;;5039778;28;20053;-71
2022/12/09 05:49:15;;;;;;;25.95;16.50;;;;;;;;;;5043161;28;20053;-71
2022/12/09 05:51:42;;;;;;;22.00;16.13;;;;;;;;;;5048416;28;20132;-70
2022/12/09 05:54:07;;;;;;;23.30;15.98;;;;;;;;;;5047214;28;20385;-70
2022/12/09 05:56:33;;;;;;;24.70;15.48;;;;;;;;;;5031419;28;20048;-70
2022/12/09 05:58:59;;;;;;;23.35;16.15;;;;;;;;;;5047557;28;20415;-71
2022/12/09 06:01:26;;;;;;;24.23;16.38;;;;;;;;;;5049984;28;20162;-70
2022/12/09 06:03:53;;;;;;;21.10;15.05;;;;;;;;;;5047593;28;20406;-69
2022/12/09 06:06:20;;;;;;;23.38;16.38;;;;;;;;;;5046071;28;20381;-69
2022/12/09 06:08:46;;;;;;;24.70;16.45;;;;;;;;;;5047835;28;20044;-69
2022/12/09 06:11:13;;;;;;;30.23;19.23;;;;;;;;;;5049918;28;20397;-68
2022/12/09 06:13:39;;;;;;;33.72;18.73;;;;;;;;;;5047678;28;20083;-70
2022/12/09 06:16:06;;;;;;;27.95;17.55;;;;;;;;;;5049235;28;20523;-68
2022/12/09 06:18:32;;;;;;;28.27;17.77;;;;;;;;;;5050129;28;20496;-71
2022/12/09 06:20:58;;;;;;;31.17;18.85;;;;;;;;;;5045824;28;20130;-68
2022/12/09 06:23:25;;;;;;;25.63;17.55;;;;;;;;;;5045846;28;20092;-68
2022/12/09 06:25:51;;;;;;;33.25;19.02;;;;;;;;;;5031478;28;20055;-68
2022/12/09 06:28:18;;;;;;;27.90;18.67;;;;;;;;;;5048096;28;20048;-67
2022/12/09 06:30:44;;;;;;;28.67;18.25;;;;;;;;;;5044167;28;20075;-69
2022/12/09 06:33:10;;;;;;;25.50;17.50;;;;;;;;;;5044938;28;20041;-67
2022/12/09 06:35:36;;;;;;;21.83;14.38;;;;;;;;;;5047308;28;20044;-70
2022/12/09 06:38:02;;;;;;;21.13;14.15;;;;;;;;;;5047454;28;20041;-67
2022/12/09 06:40:28;;;;;;;26.00;16.23;;;;;;;;;;5045353;28;20044;-67
2022/12/09 06:42:54;;;;;;;26.13;16.65;;;;;;;;;;5047015;28;20079;-69
2022/12/09 06:45:20;;;;;;;25.75;15.57;;;;;;;;;;5047798;28;20050;-67
2022/12/09 06:47:46;;;;;;;23.13;16.13;;;;;;;;;;5043840;28;20041;-68
2022/12/09 06:50:12;;;;;;;31.23;17.77;;;;;;;;;;5046806;28;20037;-67
2022/12/09 06:52:39;;;;;;;30.95;18.52;;;;;;;;;;5045741;28;20067;-67
2022/12/09 06:55:06;;;;;;;29.67;18.65;;;;;;;;;;5045735;28;20053;-70
2022/12/09 06:57:32;;;;;;;33.20;19.45;;;;;;;;;;5043262;28;20091;-66
2022/12/09 06:59:58;;;;;;;31.30;18.27;;;;;;;;;;5045750;28;20649;-66
2022/12/09 07:02:24;;;;;;;28.80;17.33;;;;;;;;;;5046394;28;20041;-67
2022/12/09 07:04:54;;;;;;;27.98;16.40;;;;;;;;;;5028851;28;20049;-66
2022/12/09 07:07:20;;;;;;;26.83;16.42;;;;;;;;;;5044471;28;20049;-66
2022/12/09 07:09:47;;;;;;;24.70;15.27;;;;;;;;;;5044460;28;20068;-68
2022/12/09 07:12:13;;;;;;;24.92;16.55;;;;;;;;;;5043799;28;20411;-68
2022/12/09 07:14:39;;;;;;;26.02;16.27;;;;;;;;;;5046326;28;20099;-68
2022/12/09 07:17:06;;;;;;;32.03;18.00;;;;;;;;;;5037050;28;20087;-69
2022/12/09 07:19:32;;;;;;;28.13;18.52;;;;;;;;;;5043958;28;20503;-67
2022/12/09 07:21:58;;;;;;;31.08;19.88;;;;;;;;;;5041705;28;20056;-69
2022/12/09 07:24:24;;;;;;;32.65;20.52;;;;;;;;;;5043467;28;20045;-70
2022/12/09 07:26:50;;;;;;;33.95;20.83;;;;;;;;;;5045294;28;20041;-70
2022/12/09 07:29:16;;;;;;;32.95;20.35;;;;;;;;;;5046214;28;20103;-68
2022/12/09 07:31:43;;;;;;;29.80;18.67;;;;;;;;;;5048387;28;20041;-69
2022/12/09 07:34:10;;;;;;;28.15;16.63;;;;;;;;;;5041290;28;20067;-70
2022/12/09 07:36:36;;;;;;;27.08;17.13;;;;;;;;;;5038269;28;20099;-70
2022/12/09 07:39:21;;;;;;;33.22;20.02;;;;;;;;;;5039605;28;20170;-70
2022/12/09 07:41:57;;;;;;;36.80;20.65;;;;;;;;;;5046895;28;20044;-67
2022/12/09 07:44:24;;;;;;;33.17;20.33;;;;;;;;;;5026025;28;20079;-70
2022/12/09 07:46:50;;;;;;;36.88;21.33;;;;;;;;;;5041695;28;20441;-69
2022/12/09 07:49:16;;;;;;;31.33;20.33;;;;;;;;;;5043234;28;20048;-67
2022/12/09 07:51:43;;;;;;;33.65;20.00;;;;;;;;;;5044467;28;20044;-68
2022/12/09 07:54:12;;;;;;;37.55;22.10;;;;;;;;;;5042510;28;20110;-71
2022/12/09 07:56:38;;;;;;;35.88;20.23;;;;;;;;;;5039119;28;20045;-68
2022/12/09 07:59:08;;;;;;;33.85;20.60;;;;;;;;;;5042882;28;20079;-67
2022/12/09 08:01:34;;;;;;;35.53;20.85;;;;;;;;;;5042051;28;20052;-68
2022/12/09 08:04:01;;;;;;;35.40;21.52;;;;;;;;;;5039044;28;20056;-69
2022/12/09 08:06:27;;;;;;;32.10;19.27;;;;;;;;;;5046421;28;20045;-68
2022/12/09 08:08:54;;;;;;;31.33;19.23;;;;;;;;;;5045888;28;20045;-67
2022/12/09 08:11:24;;;;;;;35.00;20.27;;;;;;;;;;5044157;28;20044;-70
2022/12/09 08:13:50;;;;;;;35.67;20.42;;;;;;;;;;5044591;28;20048;-68
2022/12/09 08:16:17;;;;;;;36.05;20.25;;;;;;;;;;5042269;28;20049;-67
2022/12/09 08:18:44;;;;;;;37.28;21.25;;;;;;;;;;5047086;28;20045;-67
2022/12/09 08:21:11;;;;;;;34.05;18.52;;;;;;;;;;5046689;28;20055;-67
2022/12/09 08:23:37;;;;;;;30.50;18.38;;;;;;;;;;5044235;28;20187;-68
2022/12/09 08:26:03;;;;;;;30.63;18.17;;;;;;;;;;5046509;28;20044;-67
2022/12/09 08:28:30;;;;;;;35.58;19.83;;;;;;;;;;5043730;28;20044;-67
2022/12/09 08:30:56;;;;;;;40.85;24.08;;;;;;;;;;5045370;28;20085;-67
2022/12/09 08:33:22;;;;;;;36.80;22.88;;;;;;;;;;5040676;28;20060;-67
2022/12/09 08:35:48;;;;;;;41.90;21.83;;;;;;;;;;5044129;28;20395;-69
2022/12/09 08:38:14;;;;;;;41.78;24.30;;;;;;;;;;5046080;28;20516;-69
2022/12/09 08:40:40;;;;;;;46.63;25.77;;;;;;;;;;5046815;28;20037;-68
2022/12/09 08:43:07;;;;;;;53.22;26.58;;;;;;;;;;5041966;28;20083;-67
2022/12/09 08:45:40;;;;;;;51.25;26.08;;;;;;;;;;5040411;28;20130;-66
2022/12/09 08:48:07;;;;;;;53.17;27.75;;;;;;;;;;5041346;28;20049;-67
2022/12/09 08:50:33;;;;;;;49.08;26.55;;;;;;;;;;5045930;28;20087;-65
2022/12/09 08:52:59;;;;;;;45.22;25.35;;;;;;;;;;5043453;28;20049;-66
2022/12/09 08:55:25;;;;;;;49.28;27.63;;;;;;;;;;5048523;28;20037;-65
2022/12/09 08:57:52;;;;;;;55.05;29.38;;;;;;;;;;5040205;28;20051;-65
2022/12/09 09:00:18;;;;;;;62.88;30.55;;;;;;;;;;5044162;28;20072;-67
2022/12/09 09:02:44;;;;;;;58.53;31.33;;;;;;;;;;5040731;28;20060;-66
2022/12/09 09:05:10;;;;;;;42.45;24.13;;;;;;;;;;5043921;28;20045;-68
2022/12/09 09:07:37;;;;;;;47.60;27.25;;;;;;;;;;5046045;28;20056;-68
2022/12/09 09:10:04;;;;;;;59.78;29.88;;;;;;;;;;5046041;28;20037;-69
2022/12/09 09:12:30;;;;;;;52.63;28.80;;;;;;;;;;5042401;28;20057;-69
2022/12/09 09:14:56;;;;;;;109.32;42.13;;;;;;;;;;5041750;28;20124;-66
2022/12/09 09:17:22;;;;;;;99.10;41.33;;;;;;;;;;5042077;28;20041;-69
2022/12/09 09:19:48;;;;;;;116.43;40.75;;;;;;;;;;5044564;28;20067;-67
2022/12/09 09:22:15;;;;;;;213.10;41.80;;;;;;;;;;5041238;28;20052;-68
2022/12/09 09:24:41;;;;;;;140.25;41.67;;;;;;;;;;5043031;28;20067;-69
2022/12/09 09:27:07;;;;;;;556.40;57.30;;;;;;;;;;5043852;28;20102;-68
2022/12/09 09:29:33;;;;;;;597.17;57.97;;;;;;;;;;5041221;28;20380;-67
2022/12/09 09:31:59;;;;;;;514.72;50.38;;;;;;;;;;5046151;28;20075;-68
2022/12/09 09:34:26;;;;;;;687.35;59.28;;;;;;;;;;5043395;28;20136;-69
2022/12/09 09:36:52;;;;;;;423.05;50.15;;;;;;;;;;5043772;28;20159;-69
2022/12/09 09:39:19;;;;;;;467.63;50.92;;;;;;;;;;5045198;28;20041;-70
2022/12/09 09:41:55;;;;;;;333.08;47.70;;;;;;;;;;5042892;28;20056;-70
2022/12/09 09:44:37;;;;;;;441.70;48.10;;;;;;;;;;5021993;28;20083;-70
2022/12/09 09:47:21;;;;;;;294.70;44.40;;;;;;;;;;5044292;28;20484;-69
2022/12/09 09:49:52;;;;;;;602.28;56.22;;;;;;;;;;5043467;28;20052;-68
2022/12/09 09:52:20;;;;;;;258.10;43.03;;;;;;;;;;5043728;28;20069;-71
2022/12/09 09:54:47;;;;;;;598.05;52.72;;;;;;;;;;5042291;28;20037;-72
2022/12/09 09:57:19;;;;;;;196.98;41.25;;;;;;;;;;5043575;28;20074;-71
2022/12/09 09:59:47;;;;;;;;;;;;;;;;;;5026062;28;20047;-72
2022/12/09 10:02:17;;;;;;;388.88;43.80;;;;;;;;;;5042305;28;19924;-71
2022/12/09 10:04:46;;;;;;;540.35;50.20;;;;;;;;;;5042602;28;20045;-72
2022/12/09 10:07:19;;;;;;;516.97;50.72;;;;;;;;;;5043839;28;20045;-71
2022/12/09 10:09:48;;;;;;;236.48;40.80;;;;;;;;;;5043694;28;20115;-70
2022/12/09 10:12:15;;;;;;;285.08;45.10;;;;;;;;;;5043236;28;20049;-71
2022/12/09 10:14:51;;;;;;;255.85;42.85;;;;;;;;;;5025816;28;20044;-69
2022/12/09 10:17:27;;;;;;;344.45;46.05;;;;;;;;;;5038242;28;20064;-71
2022/12/09 10:20:06;;;;;;;415.65;48.63;;;;;;;;;;5028511;28;20451;-71
2022/12/09 10:22:41;;;;;;;339.67;47.10;;;;;;;;;;5027516;28;20503;-71
2022/12/09 10:25:15;;;;;;;470.27;50.92;;;;;;;;;;5040603;28;20049;-70
2022/12/09 10:27:50;;;;;;;464.30;51.75;;;;;;;;;;5043104;28;20052;-70
2022/12/09 10:30:17;;;;;;;133.63;39.75;;;;;;;;;;5042274;28;20062;-68
2022/12/09 10:32:43;;;;;;;119.18;41.10;;;;;;;;;;5042679;28;20037;-69
2022/12/09 10:35:18;;;;;;;110.82;39.35;;;;;;;;;;5040825;28;20160;-68
2022/12/09 10:37:44;;;;;;;104.00;39.63;;;;;;;;;;5046428;28;20399;-70
2022/12/09 10:40:10;;;;;;;201.45;44.38;;;;;;;;;;5044362;28;20048;-70
2022/12/09 10:45:27;;;;;;;165.00;43.88;;;;;;;;;;5044072;28;20661;-70
2022/12/09 10:47:53;;;;;;;152.25;44.55;;;;;;;;;;5044507;28;20136;-69
2022/12/09 10:50:36;;;;;;;312.45;50.22;;;;;;;;;;5041381;28;20064;-68
2022/12/09 10:53:10;;;;;;;118.45;43.83;;;;;;;;;;5043402;28;20053;-70
2022/12/09 10:55:38;;;;;;;104.65;42.33;;;;;;;;;;5043677;28;20484;-71
2022/12/09 10:58:14;;;;;;;168.35;45.10;;;;;;;;;;5047301;28;20049;-70
2022/12/09 11:00:40;;;;;;;132.90;45.40;;;;;;;;;;5029957;28;20036;-70
2022/12/09 11:03:22;;;;;;;111.38;42.17;;;;;;;;;;5044097;28;20602;-71
2022/12/09 11:05:54;;;;;;;115.13;43.08;;;;;;;;;;5046204;28;20033;-71
2022/12/09 11:08:21;;;;;;;105.53;42.03;;;;;;;;;;5048003;28;20044;-71
2022/12/09 11:10:48;;;;;;;100.88;39.58;;;;;;;;;;5047912;28;20037;-71
2022/12/09 11:13:16;;;;;;;98.55;39.85;;;;;;;;;;5047320;28;20294;-69
2022/12/09 11:15:43;;;;;;;86.88;37.35;;;;;;;;;;5045711;28;20124;-72
2022/12/09 11:18:15;;;;;;;96.80;39.35;;;;;;;;;;5049075;28;20052;-72
2022/12/09 11:20:42;;;;;;;97.47;40.70;;;;;;;;;;5045656;28;20051;-72
2022/12/09 11:23:11;;;;;;;92.90;39.80;;;;;;;;;;5047503;28;20495;-69
2022/12/09 11:25:37;;;;;;;86.72;38.67;;;;;;;;;;5046154;28;20041;-69
2022/12/09 11:28:15;;;;;;;79.63;36.90;;;;;;;;;;5043471;28;20124;-71
2022/12/09 11:30:49;;;;;;;81.88;36.60;;;;;;;;;;5028151;28;20041;-71
2022/12/09 11:33:15;;;;;;;80.13;35.88;;;;;;;;;;5040976;28;20127;-71
2022/12/09 11:35:44;;;;;;;72.30;34.28;;;;;;;;;;5047060;28;20056;-71
2022/12/09 11:38:22;;;;;;;68.47;33.35;;;;;;;;;;5042592;28;20045;-71
2022/12/09 11:40:57;;;;;;;63.80;33.00;;;;;;;;;;5036280;28;20100;-73
2022/12/09 11:43:35;;;;;;;65.63;33.15;;;;;;;;;;5040932;28;20044;-73
2022/12/09 11:46:08;;;;;;;62.05;33.78;;;;;;;;;;5039968;28;20043;-74
2022/12/09 11:48:34;;;;;;;61.47;32.78;;;;;;;;;;5038175;28;20045;-73
2022/12/09 11:51:01;;;;;;;57.53;32.00;;;;;;;;;;5042315;28;20056;-73
2022/12/09 11:53:28;;;;;;;55.25;32.90;;;;;;;;;;5043763;28;20667;-70
2022/12/09 11:55:54;;;;;;;60.05;32.67;;;;;;;;;;5040511;28;20049;-73
2022/12/09 11:58:23;;;;;;;60.42;32.83;;;;;;;;;;5046254;28;20687;-71
2022/12/09 12:00:52;;;;;;;54.83;31.80;;;;;;;;;;5042179;28;20037;-71
2022/12/09 12:03:21;;;;;;;53.10;32.28;;;;;;;;;;5046725;28;20041;-72
2022/12/09 12:05:49;;;;;;;55.35;32.58;;;;;;;;;;5047004;28;20039;-71
2022/12/09 12:08:31;;;;;;;53.83;32.85;;;;;;;;;;5045741;28;20044;-70
2022/12/09 12:11:02;;;;;;;55.15;32.33;;;;;;;;;;5045250;28;20056;-70
2022/12/09 12:13:31;;;;;;;53.40;32.22;;;;;;;;;;5045488;28;20076;-70
2022/12/09 12:16:00;;;;;;;60.40;34.38;;;;;;;;;;5043624;28;20492;-70
2022/12/09 12:18:29;;;;;;;58.45;34.08;;;;;;;;;;5044888;28;20041;-70
2022/12/09 12:20:58;;;;;;;58.72;34.22;;;;;;;;;;5047704;28;20151;-71
2022/12/09 12:23:24;;;;;;;57.75;34.08;;;;;;;;;;5033563;28;20659;-71
2022/12/09 12:25:50;;;;;;;56.60;33.72;;;;;;;;;;5048095;28;20051;-71
2022/12/09 12:28:25;;;;;;;54.75;33.95;;;;;;;;;;5034721;28;20045;-71
2022/12/09 12:31:07;;;;;;;54.75;32.22;;;;;;;;;;5043376;28;20052;-72
2022/12/09 12:33:40;;;;;;;54.35;31.55;;;;;;;;;;5042659;28;20037;-70
2022/12/09 12:36:41;;;;;;;53.50;32.22;;;;;;;;;;5043628;28;20566;-71
2022/12/09 12:39:12;;;;;;;49.80;31.02;;;;;;;;;;5023689;28;20514;-71
2022/12/09 12:41:38;;;;;;;50.45;31.40;;;;;;;;;;5040509;28;20056;-70
2022/12/09 12:47:00;;;;;;;47.78;29.58;;;;;;;;;;5046008;28;20415;-71
2022/12/09 12:49:50;;;;;;;42.45;27.85;;;;;;;;;;5044657;28;20052;-71
2022/12/09 12:52:24;;;;;;;46.47;28.65;;;;;;;;;;5040260;28;20107;-71
2022/12/09 12:55:11;;;;;;;44.67;27.98;;;;;;;;;;5042403;28;20044;-71
2022/12/09 12:57:55;;;;;;;38.17;25.08;;;;;;;;;;5042198;28;20069;-70
2022/12/09 13:00:25;;;;;;;40.83;25.50;;;;;;;;;;5023563;28;20037;-74
2022/12/09 13:03:09;;;;;;;41.55;25.73;;;;;;;;;;5041223;28;20048;-72
2022/12/09 13:05:37;;;;;;;41.13;25.75;;;;;;;;;;5041487;28;20072;-72
2022/12/09 13:08:06;;;;;;;40.08;25.02;;;;;;;;;;5026734;28;20171;-70
2022/12/09 13:10:38;;;;;;;41.03;25.23;;;;;;;;;;5036713;28;20052;-73
2022/12/09 13:13:08;;;;;;;40.67;24.13;;;;;;;;;;5040869;28;20515;-72
2022/12/09 13:15:35;;;;;;;39.72;24.85;;;;;;;;;;5038914;28;20055;-71
2022/12/09 13:18:12;;;;;;;40.00;25.48;;;;;;;;;;5024165;28;20119;-70
2022/12/09 13:20:47;;;;;;;41.80;25.20;;;;;;;;;;5047311;28;20151;-70
2022/12/09 13:23:19;;;;;;;44.08;26.38;;;;;;;;;;5043404;28;20063;-70
2022/12/09 13:26:03;;;;;;;40.95;24.73;;;;;;;;;;5039684;28;20056;-70
2022/12/09 13:28:45;;;;;;;36.30;24.35;;;;;;;;;;5041140;28;20041;-70
2022/12/09 13:31:11;;;;;;;40.93;24.17;;;;;;;;;;5044124;28;20557;-71
2022/12/09 13:34:01;;;;;;;43.17;26.13;;;;;;;;;;5039292;28;20291;-71
2022/12/09 13:36:31;;;;;;;39.78;24.13;;;;;;;;;;5042733;28;20043;-73
2022/12/09 13:38:57;;;;;;;35.72;23.27;;;;;;;;;;5027361;28;20037;-70
2022/12/09 13:41:26;;;;;;;41.55;23.85;;;;;;;;;;5045869;28;20060;-70
2022/12/09 13:43:52;;;;;;;41.40;23.77;;;;;;;;;;5041639;28;20045;-71
2022/12/09 13:46:22;;;;;;;36.45;21.67;;;;;;;;;;5047088;28;20487;-71
2022/12/09 13:48:49;;;;;;;33.75;20.92;;;;;;;;;;5047901;28;20045;-72
2022/12/09 13:51:15;;;;;;;33.55;20.55;;;;;;;;;;5046120;28;20079;-70
2022/12/09 13:53:57;;;;;;;29.15;18.75;;;;;;;;;;5044868;28;20048;-71
2022/12/09 13:56:25;;;;;;;30.67;18.73;;;;;;;;;;5042284;28;20068;-70
2022/12/09 13:59:10;;;;;;;33.88;19.02;;;;;;;;;;5045825;28;20045;-73
2022/12/09 14:01:36;;;;;;;31.52;19.83;;;;;;;;;;5046371;28;20135;-71
2022/12/09 14:04:08;;;;;;;32.25;19.17;;;;;;;;;;5043036;28;20160;-71
2022/12/09 14:06:39;;;;;;;27.90;18.50;;;;;;;;;;5041702;28;20052;-71
2022/12/09 14:09:25;;;;;;;32.85;19.90;;;;;;;;;;5040824;28;20047;-72
2022/12/09 14:11:55;;;;;;;30.50;19.48;;;;;;;;;;5047129;28;20073;-73
2022/12/09 14:14:24;;;;;;;29.65;19.67;;;;;;;;;;5044950;28;20138;-74
2022/12/09 14:16:54;;;;;;;27.92;18.90;;;;;;;;;;5044287;28;20069;-72
2022/12/09 14:19:23;;;;;;;29.17;18.88;;;;;;;;;;5044955;28;20060;-70
2022/12/09 14:22:15;;;;;;;28.27;18.08;;;;;;;;;;5046968;28;20045;-72
2022/12/09 14:24:41;;;;;;;28.48;18.55;;;;;;;;;;5049022;28;20060;-73
2022/12/09 14:27:08;;;;;;;28.60;18.40;;;;;;;;;;5049534;28;20049;-73
2022/12/09 14:29:50;;;;;;;27.73;19.13;;;;;;;;;;5031505;28;20049;-73
2022/12/09 14:32:31;;;;;;;27.50;18.40;;;;;;;;;;5047969;28;20037;-71